ASA220 KSFO-MMPR
Flight info
| Callsign | ASA220 |
|---|---|
| Flight time | N/A |
| Altitude | 37000 |
| Route | WESLA5 YYUNG DCT LAX DCT MZB J1 TIJ UT4 LMM UJ3 MZT J141 OBRUG OBRUG1B |
| Aircraft | B739/M-SDE2E3FGHIRWXY/LB1 |
Departure
| Time | 2026-04-30 18:10 |
|---|---|
| Airport | San Francisco International Airport (KSFO) |
Arrival
| Time | N/A |
|---|---|
| Airport | Puerto Vallarta International Airport (MMPR) |
| Time | Latitude | Longitude | Altitude | Speed | Heading |
|---|---|---|---|---|---|
| 2026-04-30 17:39 | 37.61215 | -122.38908 | 21 ft | 0 kts | 285° |
| 2026-04-30 17:43 | 37.61214 | -122.38904 | 21 ft | 2 kts | 285° |
| 2026-04-30 17:44 | 37.61198 | -122.38832 | 21 ft | 3 kts | 285° |
| 2026-04-30 17:44 | 37.61182 | -122.38758 | 21 ft | 3 kts | 285° |
| 2026-04-30 17:46 | 37.61217 | -122.38702 | 21 ft | 3 kts | 191° |
| 2026-04-30 17:47 | 37.61236 | -122.38697 | 21 ft | 0 kts | 190° |
| 2026-04-30 17:53 | 37.61232 | -122.38698 | 21 ft | 3 kts | 190° |
| 2026-04-30 17:54 | 37.61040 | -122.38438 | 21 ft | 12 kts | 117° |
| 2026-04-30 17:55 | 37.61048 | -122.38266 | 21 ft | 7 kts | 27° |
| 2026-04-30 17:56 | 37.61073 | -122.37960 | 21 ft | 12 kts | 48° |
| 2026-04-30 17:57 | 37.61241 | -122.37755 | 21 ft | 11 kts | 72° |
| 2026-04-30 17:58 | 37.61271 | -122.37490 | 21 ft | 10 kts | 50° |
| 2026-04-30 17:59 | 37.61294 | -122.37468 | 21 ft | 0 kts | 32° |
| 2026-04-30 18:04 | 37.61423 | -122.37381 | 21 ft | 12 kts | 27° |
| 2026-04-30 18:05 | 37.61516 | -122.37009 | 21 ft | 14 kts | 116° |
| 2026-04-30 18:06 | 37.61266 | -122.36531 | 21 ft | 17 kts | 117° |
| 2026-04-30 18:07 | 37.61048 | -122.35982 | 21 ft | 14 kts | 88° |
| 2026-04-30 18:08 | 37.61138 | -122.35876 | 21 ft | 10 kts | 26° |
| 2026-04-30 18:09 | 37.61657 | -122.36992 | 22 ft | 145 kts | 297° |
| 2026-04-30 18:10 | 37.64236 | -122.43377 | 2708 ft | 242 kts | 296° |
| 2026-04-30 18:11 | 37.67528 | -122.50557 | 6367 ft | 233 kts | 282° |
| 2026-04-30 18:11 | 37.65008 | -122.55092 | 8612 ft | 263 kts | 188° |
| 2026-04-30 18:12 | 37.59397 | -122.52661 | 10567 ft | 299 kts | 160° |
| 2026-04-30 18:13 | 37.55359 | -122.50586 | 11411 ft | 332 kts | 162° |
| 2026-04-30 18:13 | 37.49198 | -122.47994 | 12672 ft | 359 kts | 175° |
| 2026-04-30 18:14 | 37.43374 | -122.48271 | 14309 ft | 361 kts | 192° |
| 2026-04-30 18:15 | 37.35821 | -122.49853 | 16282 ft | 372 kts | 192° |
| 2026-04-30 18:15 | 37.28022 | -122.51352 | 18106 ft | 383 kts | 192° |
| 2026-04-30 18:16 | 37.22707 | -122.52344 | 19230 ft | 389 kts | 192° |
| 2026-04-30 18:16 | 37.17327 | -122.53339 | 20277 ft | 396 kts | 192° |
| 2026-04-30 18:17 | 37.14598 | -122.53843 | 20776 ft | 399 kts | 192° |
| 2026-04-30 18:17 | 37.11841 | -122.54352 | 21258 ft | 402 kts | 192° |
| 2026-04-30 18:17 | 37.06270 | -122.55378 | 22176 ft | 407 kts | 192° |
| 2026-04-30 18:18 | 37.03434 | -122.55756 | 22607 ft | 413 kts | 184° |
| 2026-04-30 18:18 | 37.00548 | -122.55367 | 23020 ft | 422 kts | 170° |
| 2026-04-30 18:18 | 36.97751 | -122.54169 | 23425 ft | 429 kts | 159° |
| 2026-04-30 18:18 | 36.95067 | -122.52485 | 23821 ft | 434 kts | 154° |
| 2026-04-30 18:19 | 36.92442 | -122.50590 | 24204 ft | 437 kts | 152° |
| 2026-04-30 18:19 | 36.89832 | -122.48613 | 24577 ft | 439 kts | 152° |
| 2026-04-30 18:19 | 36.87210 | -122.46646 | 24935 ft | 442 kts | 152° |
| 2026-04-30 18:19 | 36.84596 | -122.44705 | 25277 ft | 444 kts | 152° |
| 2026-04-30 18:20 | 36.81927 | -122.42735 | 25616 ft | 446 kts | 152° |
| 2026-04-30 18:20 | 36.79251 | -122.40769 | 25940 ft | 448 kts | 152° |
| 2026-04-30 18:20 | 36.76548 | -122.38788 | 26257 ft | 450 kts | 152° |
| 2026-04-30 18:20 | 36.73832 | -122.36802 | 26564 ft | 452 kts | 152° |
| 2026-04-30 18:21 | 36.71111 | -122.34815 | 26859 ft | 454 kts | 152° |
| 2026-04-30 18:21 | 36.68382 | -122.32802 | 27145 ft | 456 kts | 152° |
| 2026-04-30 18:21 | 36.65645 | -122.30790 | 27423 ft | 458 kts | 152° |
| 2026-04-30 18:21 | 36.62890 | -122.28773 | 27692 ft | 460 kts | 152° |
| 2026-04-30 18:22 | 36.60122 | -122.26751 | 27952 ft | 462 kts | 152° |
| 2026-04-30 18:22 | 36.54555 | -122.22695 | 28451 ft | 465 kts | 152° |
| 2026-04-30 18:22 | 36.51755 | -122.20659 | 28688 ft | 467 kts | 152° |
| 2026-04-30 18:23 | 36.48944 | -122.18617 | 28917 ft | 469 kts | 152° |
| 2026-04-30 18:23 | 36.46127 | -122.16572 | 29140 ft | 470 kts | 152° |
| 2026-04-30 18:23 | 36.43291 | -122.14515 | 29358 ft | 472 kts | 152° |
| 2026-04-30 18:23 | 36.40453 | -122.12459 | 29609 ft | 472 kts | 152° |
| 2026-04-30 18:24 | 36.34843 | -122.08399 | 30195 ft | 470 kts | 152° |
| 2026-04-30 18:24 | 36.32018 | -122.06358 | 30465 ft | 470 kts | 152° |
| 2026-04-30 18:24 | 36.29194 | -122.04318 | 30731 ft | 469 kts | 152° |
| 2026-04-30 18:25 | 36.26376 | -122.02272 | 30989 ft | 469 kts | 152° |
| 2026-04-30 18:25 | 36.20743 | -121.98200 | 31487 ft | 468 kts | 152° |
| 2026-04-30 18:25 | 36.17927 | -121.96176 | 31726 ft | 467 kts | 152° |
| 2026-04-30 18:26 | 36.12304 | -121.92142 | 32186 ft | 466 kts | 153° |
| 2026-04-30 18:26 | 36.09503 | -121.90136 | 32408 ft | 466 kts | 153° |
| 2026-04-30 18:26 | 36.06691 | -121.88122 | 32624 ft | 466 kts | 153° |
| 2026-04-30 18:27 | 36.01255 | -121.83745 | 33033 ft | 468 kts | 143° |
| 2026-04-30 18:27 | 35.98847 | -121.81021 | 33230 ft | 470 kts | 136° |
| 2026-04-30 18:28 | 35.94609 | -121.74859 | 33615 ft | 471 kts | 129° |
| 2026-04-30 18:28 | 35.92615 | -121.71655 | 33802 ft | 471 kts | 129° |
| 2026-04-30 18:28 | 35.88636 | -121.65300 | 34160 ft | 470 kts | 129° |
| 2026-04-30 18:29 | 35.86631 | -121.62117 | 34334 ft | 470 kts | 130° |
| 2026-04-30 18:29 | 35.80617 | -121.52598 | 34831 ft | 469 kts | 130° |
| 2026-04-30 18:30 | 35.76672 | -121.46318 | 34987 ft | 470 kts | 129° |
| 2026-04-30 18:30 | 35.72613 | -121.39873 | 34996 ft | 469 kts | 130° |
| 2026-04-30 18:31 | 35.66657 | -121.30425 | 34997 ft | 467 kts | 130° |
| 2026-04-30 18:32 | 35.60633 | -121.20978 | 34997 ft | 468 kts | 130° |
| 2026-04-30 18:33 | 35.54600 | -121.11545 | 34997 ft | 468 kts | 130° |
| 2026-04-30 18:33 | 35.48674 | -121.02012 | 34997 ft | 469 kts | 127° |
| 2026-04-30 18:34 | 35.43048 | -120.92209 | 34997 ft | 468 kts | 127° |
| 2026-04-30 18:35 | 35.39267 | -120.85701 | 34997 ft | 468 kts | 127° |
| 2026-04-30 18:35 | 35.35475 | -120.79206 | 34997 ft | 468 kts | 127° |
| 2026-04-30 18:36 | 35.29814 | -120.69493 | 34997 ft | 469 kts | 127° |
| 2026-04-30 18:37 | 35.24146 | -120.59738 | 34997 ft | 469 kts | 127° |
| 2026-04-30 18:37 | 35.20353 | -120.53257 | 34997 ft | 468 kts | 127° |
| 2026-04-30 18:38 | 35.16550 | -120.46780 | 34997 ft | 468 kts | 127° |
| 2026-04-30 18:38 | 35.12764 | -120.40348 | 34997 ft | 469 kts | 127° |
| 2026-04-30 18:39 | 35.08948 | -120.33877 | 34997 ft | 469 kts | 128° |
| 2026-04-30 18:39 | 35.05138 | -120.27429 | 34997 ft | 468 kts | 128° |
| 2026-04-30 18:40 | 35.01321 | -120.20981 | 34997 ft | 468 kts | 128° |
| 2026-04-30 18:40 | 34.97499 | -120.14536 | 34997 ft | 468 kts | 128° |
| 2026-04-30 18:41 | 34.93670 | -120.08093 | 34997 ft | 468 kts | 128° |
| 2026-04-30 18:41 | 34.89851 | -120.01677 | 34997 ft | 474 kts | 128° |
| 2026-04-30 18:42 | 34.85952 | -119.95138 | 34997 ft | 480 kts | 128° |
| 2026-04-30 18:42 | 34.80015 | -119.85206 | 34997 ft | 487 kts | 128° |
| 2026-04-30 18:45 | 34.58036 | -119.48674 | 34997 ft | 487 kts | 128° |
| 2026-04-30 18:46 | 34.54022 | -119.42043 | 34997 ft | 487 kts | 128° |
| 2026-04-30 18:46 | 34.50012 | -119.35430 | 34997 ft | 487 kts | 128° |
| 2026-04-30 18:47 | 34.45993 | -119.28814 | 34997 ft | 487 kts | 128° |
| 2026-04-30 18:47 | 34.42622 | -119.23276 | 34997 ft | 487 kts | 128° |
| 2026-04-30 18:48 | 34.38389 | -119.16975 | 34998 ft | 485 kts | 135° |
| 2026-04-30 18:48 | 34.33702 | -119.11093 | 34997 ft | 485 kts | 136° |
| 2026-04-30 18:49 | 34.28974 | -119.05266 | 34997 ft | 485 kts | 136° |
| 2026-04-30 18:49 | 34.24249 | -118.99450 | 34997 ft | 485 kts | 136° |
| 2026-04-30 18:50 | 34.19514 | -118.93631 | 34997 ft | 485 kts | 136° |
| 2026-04-30 18:50 | 34.14789 | -118.87833 | 34997 ft | 485 kts | 136° |
| 2026-04-30 18:51 | 34.10082 | -118.82002 | 34997 ft | 485 kts | 136° |
| 2026-04-30 18:51 | 34.05396 | -118.76229 | 34997 ft | 485 kts | 136° |
| 2026-04-30 18:52 | 34.00668 | -118.70427 | 34997 ft | 485 kts | 136° |
| 2026-04-30 18:52 | 33.95935 | -118.64633 | 34997 ft | 485 kts | 136° |
| 2026-04-30 18:53 | 33.91207 | -118.58858 | 34997 ft | 485 kts | 136° |
| 2026-04-30 18:53 | 33.86466 | -118.53077 | 34997 ft | 485 kts | 137° |
| 2026-04-30 18:54 | 33.81879 | -118.47493 | 34997 ft | 485 kts | 137° |
| 2026-04-30 18:54 | 33.77133 | -118.41726 | 34997 ft | 485 kts | 137° |
| 2026-04-30 18:55 | 33.72421 | -118.36008 | 34997 ft | 485 kts | 137° |
| 2026-04-30 18:55 | 33.65294 | -118.27379 | 34997 ft | 485 kts | 137° |
| 2026-04-30 18:56 | 33.58158 | -118.18760 | 34997 ft | 485 kts | 137° |
| 2026-04-30 18:57 | 33.51026 | -118.10168 | 34997 ft | 485 kts | 137° |
| 2026-04-30 18:57 | 33.46296 | -118.04482 | 34997 ft | 485 kts | 137° |
| 2026-04-30 18:58 | 33.39152 | -117.95910 | 34997 ft | 485 kts | 137° |
| 2026-04-30 18:59 | 33.32003 | -117.87353 | 34997 ft | 484 kts | 137° |
| 2026-04-30 19:00 | 33.22462 | -117.75966 | 34997 ft | 484 kts | 137° |
| 2026-04-30 19:01 | 33.12908 | -117.64601 | 34997 ft | 484 kts | 137° |
| 2026-04-30 19:02 | 33.05743 | -117.56101 | 34997 ft | 484 kts | 137° |
| 2026-04-30 19:03 | 32.96197 | -117.44809 | 34997 ft | 484 kts | 137° |
| 2026-04-30 19:04 | 32.86618 | -117.33514 | 34997 ft | 484 kts | 137° |
| 2026-04-30 19:05 | 32.77037 | -117.22249 | 34997 ft | 484 kts | 137° |
| 2026-04-30 19:06 | 32.67465 | -117.10957 | 34997 ft | 484 kts | 137° |
| 2026-04-30 19:06 | 32.60277 | -117.02557 | 34997 ft | 484 kts | 137° |
| 2026-04-30 19:07 | 32.53084 | -116.94133 | 34997 ft | 485 kts | 136° |
| 2026-04-30 19:08 | 32.43913 | -116.82398 | 34997 ft | 485 kts | 135° |
| 2026-04-30 19:09 | 32.37070 | -116.73629 | 34997 ft | 485 kts | 135° |
| 2026-04-30 19:09 | 32.32460 | -116.67783 | 34997 ft | 485 kts | 135° |
| 2026-04-30 19:10 | 32.23239 | -116.56132 | 34997 ft | 485 kts | 135° |
| 2026-04-30 19:11 | 32.16315 | -116.47406 | 34997 ft | 485 kts | 135° |
| 2026-04-30 19:12 | 32.11726 | -116.41644 | 34997 ft | 485 kts | 135° |
| 2026-04-30 19:12 | 32.07093 | -116.35834 | 34996 ft | 485 kts | 135° |
| 2026-04-30 19:13 | 31.97839 | -116.24250 | 34997 ft | 485 kts | 135° |
| 2026-04-30 19:14 | 31.93241 | -116.18435 | 34997 ft | 485 kts | 135° |
| 2026-04-30 19:14 | 31.88620 | -116.12643 | 34997 ft | 485 kts | 135° |
| 2026-04-30 19:15 | 31.84011 | -116.06903 | 34997 ft | 485 kts | 135° |
| 2026-04-30 19:15 | 31.77056 | -115.98261 | 34997 ft | 485 kts | 135° |
| 2026-04-30 19:16 | 31.72415 | -115.92499 | 34997 ft | 485 kts | 135° |
| 2026-04-30 19:17 | 31.65442 | -115.83884 | 34997 ft | 485 kts | 135° |
| 2026-04-30 19:17 | 31.58459 | -115.75275 | 34997 ft | 485 kts | 135° |
| 2026-04-30 19:18 | 31.51507 | -115.66724 | 34997 ft | 485 kts | 136° |
| 2026-04-30 19:19 | 31.46867 | -115.60975 | 34997 ft | 485 kts | 135° |
| 2026-04-30 19:19 | 31.39893 | -115.52380 | 34997 ft | 485 kts | 135° |
| 2026-04-30 19:20 | 31.35227 | -115.46654 | 34997 ft | 485 kts | 136° |
| 2026-04-30 19:21 | 31.28255 | -115.38117 | 34997 ft | 485 kts | 136° |
| 2026-04-30 19:22 | 31.18927 | -115.26727 | 34997 ft | 485 kts | 136° |
| 2026-04-30 19:23 | 31.04932 | -115.09670 | 34997 ft | 485 kts | 136° |
| 2026-04-30 19:24 | 30.97912 | -115.01176 | 34997 ft | 485 kts | 136° |
| 2026-04-30 19:25 | 30.86199 | -114.87039 | 34997 ft | 485 kts | 136° |
| 2026-04-30 19:26 | 30.76835 | -114.75793 | 34997 ft | 485 kts | 136° |
| 2026-04-30 19:27 | 30.69786 | -114.67349 | 34997 ft | 485 kts | 136° |
| 2026-04-30 19:28 | 30.62754 | -114.58900 | 34997 ft | 485 kts | 136° |
| 2026-04-30 19:29 | 30.53364 | -114.47639 | 34997 ft | 485 kts | 136° |
| 2026-04-30 19:30 | 30.43983 | -114.36451 | 34997 ft | 485 kts | 136° |
| 2026-04-30 19:31 | 30.34568 | -114.25258 | 34997 ft | 485 kts | 136° |
| 2026-04-30 19:31 | 30.27496 | -114.16873 | 34997 ft | 485 kts | 136° |
| 2026-04-30 19:32 | 30.22779 | -114.11290 | 34997 ft | 485 kts | 136° |
| 2026-04-30 19:32 | 30.18060 | -114.05712 | 34997 ft | 485 kts | 136° |
| 2026-04-30 19:33 | 30.13348 | -114.00150 | 34997 ft | 485 kts | 136° |
| 2026-04-30 19:33 | 30.09419 | -113.95519 | 34997 ft | 485 kts | 136° |
| 2026-04-30 19:34 | 30.04694 | -113.89957 | 34997 ft | 485 kts | 136° |
| 2026-04-30 19:35 | 29.97622 | -113.81615 | 34997 ft | 485 kts | 136° |
| 2026-04-30 19:35 | 29.92928 | -113.76116 | 34997 ft | 485 kts | 136° |
| 2026-04-30 19:36 | 29.88227 | -113.70621 | 34997 ft | 485 kts | 136° |
| 2026-04-30 19:36 | 29.81118 | -113.62322 | 34997 ft | 485 kts | 136° |
| 2026-04-30 19:37 | 29.76381 | -113.56800 | 34997 ft | 485 kts | 137° |
| 2026-04-30 19:37 | 29.71633 | -113.51286 | 34997 ft | 485 kts | 137° |
| 2026-04-30 19:38 | 29.66883 | -113.45778 | 34997 ft | 485 kts | 137° |
| 2026-04-30 19:38 | 29.62133 | -113.40277 | 34997 ft | 485 kts | 137° |
| 2026-04-30 19:39 | 29.57370 | -113.34769 | 34997 ft | 485 kts | 137° |
| 2026-04-30 19:39 | 29.52629 | -113.29253 | 34997 ft | 485 kts | 136° |
| 2026-04-30 19:40 | 29.47893 | -113.23748 | 34997 ft | 485 kts | 137° |
| 2026-04-30 19:40 | 29.43176 | -113.18286 | 34997 ft | 485 kts | 137° |
| 2026-04-30 19:41 | 29.38416 | -113.12789 | 34997 ft | 485 kts | 137° |
| 2026-04-30 19:41 | 29.33657 | -113.07304 | 34997 ft | 485 kts | 137° |
| 2026-04-30 19:42 | 29.28895 | -113.01825 | 34997 ft | 485 kts | 137° |
| 2026-04-30 19:42 | 29.24137 | -112.96358 | 34997 ft | 485 kts | 137° |
| 2026-04-30 19:43 | 29.19401 | -112.90924 | 34997 ft | 485 kts | 137° |
| 2026-04-30 19:44 | 29.12248 | -112.82731 | 34997 ft | 485 kts | 137° |
| 2026-04-30 19:44 | 29.07474 | -112.77274 | 34997 ft | 485 kts | 137° |
| 2026-04-30 19:45 | 29.02704 | -112.71827 | 34997 ft | 485 kts | 137° |
| 2026-04-30 19:45 | 28.97935 | -112.66389 | 34997 ft | 485 kts | 137° |
| 2026-04-30 19:46 | 28.93185 | -112.60981 | 34997 ft | 485 kts | 137° |
| 2026-04-30 19:46 | 28.88407 | -112.55549 | 34997 ft | 485 kts | 137° |
| 2026-04-30 19:47 | 28.83629 | -112.50122 | 34997 ft | 485 kts | 137° |
| 2026-04-30 19:47 | 28.78848 | -112.44701 | 34997 ft | 485 kts | 137° |
| 2026-04-30 19:48 | 28.74060 | -112.39279 | 34997 ft | 485 kts | 137° |
| 2026-04-30 19:48 | 28.69274 | -112.33867 | 34997 ft | 485 kts | 137° |
| 2026-04-30 19:49 | 28.64511 | -112.28488 | 34997 ft | 485 kts | 137° |
| 2026-04-30 19:49 | 28.57325 | -112.20388 | 34997 ft | 485 kts | 137° |
| 2026-04-30 19:50 | 28.52536 | -112.14997 | 34997 ft | 485 kts | 137° |